Balmat, New York
Current Conditions -  °F | °C
As of 11:58 PM on Tuesday 25 Nov 2014 (Local Time) from KGTB Reporting Station
Few Clouds Few Clouds  
Wind Chill: 27°   Ceiling: Unl
Heat Index: 34°   Visibility: 10mi
Dew Point: 24°   Wind: 9mph
Humidity: 67%   Direction: 270°W
Pressure: 30.17"   Gusts: NA
Location:  44.2483°N, 75.3953°W
Report Text: KGTB 260458Z AUTO 27008KT 10SM FEW046 01/M04 A3017 RMK AO2 SLP223 T00121044 400690012
Loading
Personal Weather Stations






























Interactive Weather Map New forecast layout! Learn more

10-Day Weather Forecast

Advertisements
Track Severe Weather on mobile